Time;durP1;ratioP1;P1;durP2;ratioP2;P2;SDS_P1;SDS_P2;PMS_P1;PMS_P2;Temp;Humidity;BMP_temperature;BMP_pressure;BME280_temperature;BME280_humidity;BME280_pressure;Samples;Min_cycle;Max_cycle;Signal;HPM_P1;HPM_P2
2023/04/01 00:01:05;;;;;;;2.97;0.93;;;12.30;1.00;;;;;;5052560;28;20462;-57
2023/04/01 00:03:32;;;;;;;2.10;0.73;;;12.40;1.00;;;;;;5056999;28;20989;-57
2023/04/01 00:05:59;;;;;;;2.73;0.90;;;12.40;1.00;;;;;;5053156;28;20971;-56
2023/04/01 00:08:26;;;;;;;2.17;0.90;;;12.30;1.00;;;;;;5055139;28;20541;-57
2023/04/01 00:10:52;;;;;;;1.87;0.80;;;12.30;1.00;;;;;;5057336;28;20951;-57
2023/04/01 00:13:17;;;;;;;2.00;1.00;;;12.40;1.00;;;;;;5066642;28;20500;-56
2023/04/01 00:15:43;;;;;;;1.47;0.70;;;12.40;1.00;;;;;;5067768;28;20462;-56
2023/04/01 00:18:09;;;;;;;1.33;0.70;;;12.40;1.00;;;;;;5068365;28;20290;-56
2023/04/01 00:20:35;;;;;;;2.87;1.20;;;12.40;1.00;;;;;;5074291;28;20451;-56
2023/04/01 00:23:01;;;;;;;2.70;0.80;;;12.40;1.00;;;;;;5067702;28;21011;-56
2023/04/01 00:25:27;;;;;;;3.33;0.93;;;12.40;1.00;;;;;;5067780;28;20545;-55
2023/04/01 00:27:52;;;;;;;4.40;0.87;;;12.40;1.00;;;;;;5060742;28;20184;-56
2023/04/01 00:30:18;;;;;;;1.60;0.80;;;12.40;1.00;;;;;;5068154;28;20176;-57
2023/04/01 00:32:44;;;;;;;2.03;0.70;;;12.40;1.00;;;;;;5066052;28;20245;-56
2023/04/01 00:35:10;;;;;;;1.07;0.70;;;12.30;1.00;;;;;;5060251;28;20452;-56
2023/04/01 00:37:39;;;;;;;1.70;0.90;;;12.30;1.00;;;;;;5066116;28;20195;-57
2023/04/01 00:40:07;;;;;;;1.40;0.63;;;12.30;1.00;;;;;;5054426;28;20454;-58
2023/04/01 00:42:33;;;;;;;3.10;1.03;;;12.40;1.00;;;;;;5052643;28;20982;-56
2023/04/01 00:45:18;;;;;;;2.30;0.83;;;12.40;1.00;;;;;;5055248;28;20474;-57
2023/04/01 00:47:44;;;;;;;1.40;0.63;;;12.50;1.00;;;;;;5062592;28;20689;-57
2023/04/01 00:50:10;;;;;;;2.20;0.90;;;12.50;1.00;;;;;;5061361;28;20454;-57
2023/04/01 00:52:36;;;;;;;3.30;1.17;;;12.40;1.00;;;;;;5062713;28;20196;-57
2023/04/01 00:55:04;;;;;;;1.40;1.07;;;12.30;1.00;;;;;;5062965;28;20486;-56
2023/04/01 00:57:36;;;;;;;1.60;0.70;;;12.40;1.00;;;;;;5062137;28;20456;-56
2023/04/01 01:00:07;;;;;;;2.93;1.00;;;12.30;1.00;;;;;;5054773;28;20549;-58
2023/04/01 01:02:34;;;;;;;2.83;0.80;;;12.30;1.00;;;;;;5056056;28;20450;-57
2023/04/01 01:05:00;;;;;;;2.20;1.10;;;12.40;1.00;;;;;;5059766;28;20502;-55
2023/04/01 01:07:36;;;;;;;2.57;1.00;;;12.30;1.00;;;;;;5067415;28;20441;-57
2023/04/01 01:10:18;;;;;;;1.70;0.83;;;12.30;1.00;;;;;;5064136;28;20194;-56
2023/04/01 01:13:10;;;;;;;3.00;0.93;;;12.40;1.00;;;;;;5057607;28;20470;-57
2023/04/01 01:16:01;;;;;;;4.93;1.43;;;12.50;1.00;;;;;;5051662;28;20442;-58
2023/04/01 01:18:41;;;;;;;1.50;0.83;;;12.40;1.00;;;;;;5052074;28;20446;-56
2023/04/01 01:21:30;;;;;;;1.40;0.90;;;12.40;1.00;;;;;;5051361;28;20458;-56
2023/04/01 01:23:58;;;;;;;2.57;1.00;;;12.40;1.00;;;;;;5052004;28;20494;-57
2023/04/01 01:26:42;;;;;;;1.43;0.60;;;12.50;1.00;;;;;;5053681;28;20441;-56
2023/04/01 01:29:41;;;;;;;3.00;0.80;;;12.60;1.00;;;;;;5061224;28;20953;-56
2023/04/01 01:32:38;;;;;;;1.70;0.90;;;12.50;1.00;;;;;;5057732;28;20446;-56
2023/04/01 01:35:12;;;;;;;3.87;0.97;;;12.40;1.00;;;;;;5057017;28;20461;-56
2023/04/01 01:37:39;;;;;;;2.10;0.77;;;12.30;1.00;;;;;;5056501;28;20520;-56
2023/04/01 01:40:08;;;;;;;2.60;0.90;;;12.30;1.00;;;;;;5056559;28;20801;-56
2023/04/01 01:42:38;;;;;;;1.73;0.80;;;12.30;1.00;;;;;;5057232;28;20971;-56
2023/04/01 01:45:05;;;;;;;1.57;0.80;;;12.30;1.00;;;;;;5054800;28;20804;-56
2023/04/01 01:47:33;;;;;;;1.83;0.90;;;12.30;1.00;;;;;;5058906;28;20465;-56
2023/04/01 01:50:01;;;;;;;2.33;0.80;;;12.30;1.00;;;;;;5055069;28;20847;-57
2023/04/01 01:52:28;;;;;;;4.00;0.90;;;12.30;1.00;;;;;;5057052;28;20458;-55
2023/04/01 01:54:56;;;;;;;1.60;0.93;;;12.40;1.00;;;;;;5055232;28;20550;-55
2023/04/01 01:57:34;;;;;;;2.70;1.50;;;12.40;1.00;;;;;;5056953;28;20454;-57
2023/04/01 02:00:14;;;;;;;3.93;0.90;;;12.40;1.00;;;;;;5055810;28;20458;-56
2023/04/01 02:02:47;;;;;;;4.50;1.13;;;12.40;1.00;;;;;;5055860;28;21186;-55
2023/04/01 02:05:22;;;;;;;2.87;1.00;;;12.50;1.00;;;;;;5055512;28;20590;-55
2023/04/01 02:07:57;;;;;;;0.80;0.80;;;12.40;1.00;;;;;;5056757;28;20446;-55
2023/04/01 02:10:26;;;;;;;2.10;0.80;;;12.30;1.00;;;;;;5055181;28;20548;-57
2023/04/01 02:12:57;;;;;;;2.50;0.97;;;12.30;1.00;;;;;;5056822;28;20454;-57
2023/04/01 02:15:27;;;;;;;2.20;0.80;;;12.40;1.00;;;;;;5052668;28;20465;-57
2023/04/01 02:17:54;;;;;;;2.50;1.17;;;12.40;1.00;;;;;;5055038;28;20959;-56
2023/04/01 02:20:22;;;;;;;2.20;0.97;;;12.40;1.00;;;;;;5067364;28;20452;-57
2023/04/01 02:22:51;;;;;;;2.30;1.07;;;12.30;1.00;;;;;;5068838;28;20441;-56
2023/04/01 02:25:28;;;;;;;3.23;0.90;;;12.30;1.00;;;;;;5067934;28;20470;-57
2023/04/01 02:27:55;;;;;;;1.40;0.80;;;12.30;1.00;;;;;;5060101;28;20450;-57
2023/04/01 02:30:21;;;;;;;2.70;0.90;;;12.30;1.00;;;;;;5055967;28;20454;-56
2023/04/01 02:32:48;;;;;;;1.70;1.00;;;12.20;1.00;;;;;;5056230;28;20552;-55
2023/04/01 02:35:17;;;;;;;3.30;1.20;;;12.10;1.00;;;;;;5055092;28;20946;-57
2023/04/01 02:37:45;;;;;;;3.80;0.97;;;12.20;1.00;;;;;;5055094;28;20531;-57
2023/04/01 02:40:13;;;;;;;2.70;0.90;;;12.20;1.00;;;;;;5054502;28;20469;-55
2023/04/01 02:42:38;;;;;;;1.67;0.80;;;12.20;1.00;;;;;;5056184;28;20465;-56
2023/04/01 02:45:05;;;;;;;1.53;0.70;;;12.10;1.00;;;;;;5065275;28;20477;-57
2023/04/01 02:47:31;;;;;;;1.90;1.10;;;12.20;1.00;;;;;;5067039;28;20194;-56
2023/04/01 02:49:59;;;;;;;5.53;0.90;;;12.20;1.00;;;;;;5067443;28;20446;-56
2023/04/01 02:52:26;;;;;;;4.43;1.20;;;12.20;1.00;;;;;;5066370;28;20318;-56
2023/04/01 02:54:52;;;;;;;2.53;1.40;;;12.20;1.00;;;;;;5069647;28;20492;-57
2023/04/01 02:57:18;;;;;;;3.70;1.00;;;12.10;1.00;;;;;;5063040;28;20464;-57
2023/04/01 02:59:43;;;;;;;3.17;1.33;;;12.10;1.00;;;;;;5064505;28;20951;-56
2023/04/01 03:02:09;;;;;;;3.37;0.80;;;12.10;1.00;;;;;;5066117;28;20537;-56
2023/04/01 03:04:35;;;;;;;5.90;1.13;;;12.10;1.00;;;;;;5067158;28;20223;-55
2023/04/01 03:07:01;;;;;;;3.00;0.70;;;12.10;1.00;;;;;;5064438;28;20986;-55
2023/04/01 03:09:27;;;;;;;2.73;1.03;;;12.10;1.00;;;;;;5065565;28;20188;-57
2023/04/01 03:11:52;;;;;;;2.37;0.80;;;12.10;1.00;;;;;;5064193;28;20761;-56
2023/04/01 03:14:18;;;;;;;2.23;1.10;;;12.10;1.00;;;;;;5066125;28;20588;-56
2023/04/01 03:16:43;;;;;;;4.73;1.10;;;12.20;1.00;;;;;;5067054;28;20199;-54
2023/04/01 03:19:09;;;;;;;1.87;0.87;;;12.20;1.00;;;;;;5065263;28;20192;-56
2023/04/01 03:21:34;;;;;;;3.27;1.10;;;12.30;1.00;;;;;;5065579;28;20203;-56
2023/04/01 03:24:00;;;;;;;2.90;1.10;;;12.40;1.00;;;;;;5063062;28;20590;-58
2023/04/01 03:26:29;;;;;;;3.53;1.90;;;12.50;1.00;;;;;;5066672;28;20191;-56
2023/04/01 03:28:56;;;;;;;1.33;0.83;;;12.30;1.00;;;;;;5069086;28;20240;-56
2023/04/01 03:31:21;;;;;;;2.50;0.80;;;12.30;1.00;;;;;;5067136;28;20450;-57
2023/04/01 03:33:47;;;;;;;4.43;1.50;;;12.30;1.00;;;;;;5066412;28;20465;-55
2023/04/01 03:36:13;;;;;;;2.80;1.20;;;12.40;1.00;;;;;;5064017;28;20539;-55
2023/04/01 03:38:41;;;;;;;4.70;0.90;;;12.40;1.00;;;;;;5064747;28;20515;-57
2023/04/01 03:41:07;;;;;;;4.23;1.70;;;12.40;1.00;;;;;;5065461;28;20275;-55
2023/04/01 03:43:33;;;;;;;6.00;0.97;;;12.40;1.00;;;;;;5059692;28;20557;-54
2023/04/01 03:45:59;;;;;;;2.07;0.90;;;12.40;1.00;;;;;;5063904;28;20519;-57
2023/04/01 03:48:25;;;;;;;4.33;1.33;;;12.50;1.00;;;;;;5074328;28;20898;-55
2023/04/01 03:50:52;;;;;;;3.60;0.90;;;12.30;1.00;;;;;;5062010;28;20458;-55
2023/04/01 03:53:18;;;;;;;3.23;1.00;;;12.40;1.00;;;;;;5063075;28;21144;-56
2023/04/01 03:55:43;;;;;;;1.07;0.97;;;12.40;1.00;;;;;;5068699;28;20434;-57
2023/04/01 03:58:09;;;;;;;1.67;0.80;;;12.50;1.00;;;;;;5054065;28;20241;-56
2023/04/01 04:00:35;;;;;;;1.07;0.80;;;12.40;1.00;;;;;;5054625;28;20644;-56
2023/04/01 04:03:01;;;;;;;3.37;1.07;;;12.50;1.00;;;;;;5053075;28;20406;-57
2023/04/01 04:05:27;;;;;;;5.70;0.93;;;12.50;1.00;;;;;;5051626;28;20473;-57
2023/04/01 04:07:53;;;;;;;4.60;2.20;;;12.60;1.00;;;;;;5053633;28;20460;-56
2023/04/01 04:10:20;;;;;;;1.63;1.20;;;12.50;1.00;;;;;;5054093;28;20188;-56
2023/04/01 04:12:45;;;;;;;3.00;1.10;;;12.50;1.00;;;;;;5055082;28;20785;-57
2023/04/01 04:15:12;;;;;;;2.67;1.00;;;12.50;1.00;;;;;;5055627;28;20455;-56
2023/04/01 04:17:37;;;;;;;7.80;0.90;;;12.50;1.00;;;;;;5060818;28;20203;-55
2023/04/01 04:20:04;;;;;;;2.93;1.10;;;12.40;1.00;;;;;;5053132;28;20447;-56
2023/04/01 04:22:30;;;;;;;0.97;0.87;;;12.40;1.00;;;;;;5052724;28;20211;-56
2023/04/01 04:24:55;;;;;;;2.47;1.10;;;12.40;1.00;;;;;;5051776;28;20469;-56
2023/04/01 04:27:21;;;;;;;1.33;0.87;;;12.50;1.00;;;;;;5052989;28;20218;-56
2023/04/01 04:29:46;;;;;;;2.43;1.17;;;12.60;1.00;;;;;;5053641;28;20743;-57
2023/04/01 04:32:12;;;;;;;2.10;0.83;;;12.50;1.00;;;;;;5054741;28;20295;-56
2023/04/01 04:34:38;;;;;;;3.47;0.90;;;12.50;1.00;;;;;;5055576;28;20183;-55
2023/04/01 04:37:04;;;;;;;6.07;0.80;;;12.40;1.00;;;;;;5055797;28;20228;-55
2023/04/01 04:39:30;;;;;;;2.40;1.20;;;12.50;1.00;;;;;;5055141;28;20282;-57
2023/04/01 04:41:56;;;;;;;2.00;0.87;;;12.60;1.00;;;;;;5053903;28;20197;-58
2023/04/01 04:44:21;;;;;;;1.87;0.93;;;12.60;1.00;;;;;;5050629;28;20441;-56
2023/04/01 04:46:47;;;;;;;2.73;0.90;;;12.50;1.00;;;;;;5053452;28;21998;-54
2023/04/01 04:49:13;;;;;;;1.33;0.70;;;12.50;1.00;;;;;;5054762;28;20210;-55
2023/04/01 04:51:39;;;;;;;1.40;0.80;;;12.50;1.00;;;;;;5053541;28;20270;-56
2023/04/01 04:54:05;;;;;;;2.97;0.77;;;12.50;1.00;;;;;;5056199;28;20234;-55
2023/04/01 04:56:32;;;;;;;2.77;0.90;;;12.40;1.00;;;;;;5058249;28;20185;-56
2023/04/01 04:58:58;;;;;;;2.63;1.03;;;12.50;1.00;;;;;;5065769;28;20480;-55
2023/04/01 05:01:24;;;;;;;1.07;0.70;;;12.50;1.00;;;;;;5062463;28;20481;-55
2023/04/01 05:03:51;;;;;;;2.00;0.80;;;12.50;1.00;;;;;;5069642;28;20482;-56
2023/04/01 05:06:17;;;;;;;2.43;0.83;;;12.50;1.00;;;;;;5068629;28;20456;-57
2023/04/01 05:08:45;;;;;;;2.93;0.93;;;12.50;1.00;;;;;;5067027;28;20460;-55
2023/04/01 05:11:18;;;;;;;1.87;0.80;;;12.60;1.00;;;;;;5069369;28;22111;-56
2023/04/01 05:13:45;;;;;;;2.50;0.80;;;12.60;1.00;;;;;;5071822;28;20507;-55
2023/04/01 05:16:13;;;;;;;2.27;0.80;;;12.50;1.00;;;;;;5070260;28;20503;-54
2023/04/01 05:18:39;;;;;;;2.20;0.90;;;12.50;1.00;;;;;;5064525;28;20460;-56
2023/04/01 05:21:06;;;;;;;1.43;0.80;;;12.60;1.00;;;;;;5057215;28;20443;-56
2023/04/01 05:23:32;;;;;;;2.80;0.97;;;12.50;1.00;;;;;;5057459;28;20306;-55
2023/04/01 05:26:02;;;;;;;3.67;0.77;;;12.60;1.00;;;;;;5058776;28;21081;-55
2023/04/01 05:28:27;;;;;;;1.43;0.90;;;12.70;1.00;;;;;;5058034;28;20529;-55
2023/04/01 05:30:53;;;;;;;1.50;0.80;;;12.60;1.00;;;;;;5058620;28;20526;-56
2023/04/01 05:33:18;;;;;;;2.00;0.80;;;12.60;1.00;;;;;;5065411;28;20238;-55
2023/04/01 05:35:44;;;;;;;2.83;0.90;;;12.50;1.00;;;;;;5070027;28;20183;-56
2023/04/01 05:38:10;;;;;;;1.97;1.03;;;12.40;1.00;;;;;;5068890;28;20264;-54
2023/04/01 05:40:36;;;;;;;1.60;0.80;;;12.50;1.00;;;;;;5070902;28;20186;-55
2023/04/01 05:43:01;;;;;;;2.50;0.90;;;12.50;1.00;;;;;;5065392;28;20660;-57
2023/04/01 05:45:27;;;;;;;1.40;0.60;;;12.60;1.00;;;;;;5080901;28;20472;-56
2023/04/01 05:47:54;;;;;;;1.40;0.80;;;12.60;1.00;;;;;;5069166;28;20448;-54
2023/04/01 05:50:20;;;;;;;1.93;0.90;;;12.50;1.00;;;;;;5069898;28;20199;-54
2023/04/01 05:52:46;;;;;;;3.47;1.23;;;12.40;1.00;;;;;;5066079;28;20446;-56
2023/04/01 05:55:11;;;;;;;6.63;1.83;;;12.50;1.00;;;;;;5067669;28;20222;-55
2023/04/01 05:57:37;;;;;;;2.93;1.00;;;12.60;1.00;;;;;;5067752;28;20188;-54
2023/04/01 06:00:04;;;;;;;5.33;1.83;;;12.60;1.00;;;;;;5069443;28;20258;-55
2023/04/01 06:02:30;;;;;;;5.40;1.37;;;12.70;1.00;;;;;;5065501;28;20192;-55
2023/04/01 06:05:19;;;;;;;3.53;0.90;;;12.60;1.00;;;;;;5064854;28;20539;-55
2023/04/01 06:07:46;;;;;;;3.50;1.63;;;12.60;1.00;;;;;;5069705;28;20241;-54
2023/04/01 06:10:17;;;;;;;3.70;0.80;;;12.70;1.00;;;;;;5064913;28;20457;-54
2023/04/01 06:12:52;;;;;;;1.90;0.90;;;12.70;1.00;;;;;;5062374;28;20788;-54
2023/04/01 06:15:36;;;;;;;2.17;0.90;;;12.70;1.00;;;;;;5064671;28;20453;-56
2023/04/01 06:18:13;;;;;;;3.23;1.00;;;12.80;1.00;;;;;;5065804;28;20508;-55
2023/04/01 06:21:02;;;;;;;3.87;1.13;;;12.80;1.00;;;;;;5064703;28;20447;-55
2023/04/01 06:23:32;;;;;;;0.83;0.73;;;12.80;1.00;;;;;;5067758;28;20449;-54
2023/04/01 06:26:08;;;;;;;1.50;0.70;;;12.90;1.00;;;;;;5070032;28;20437;-55
2023/04/01 06:28:43;;;;;;;2.83;0.90;;;12.90;1.00;;;;;;5064179;28;20470;-55
2023/04/01 06:31:27;;;;;;;2.10;1.03;;;13.10;1.00;;;;;;5067911;28;20931;-54
2023/04/01 06:34:05;;;;;;;2.63;1.00;;;13.00;1.00;;;;;;5066264;28;20533;-54
2023/04/01 06:36:52;;;;;;;3.60;1.00;;;13.10;1.00;;;;;;5065331;28;20978;-55
2023/04/01 06:40:00;;;;;;;1.47;0.80;;;13.30;1.00;;;;;;5066713;28;20449;-55
2023/04/01 06:42:45;;;;;;;2.70;0.80;;;13.10;1.00;;;;;;5064079;28;20450;-55
2023/04/01 06:45:29;;;;;;;2.47;0.90;;;13.20;1.00;;;;;;5068796;28;20473;-56
2023/04/01 06:48:00;;;;;;;1.70;1.13;;;13.30;1.00;;;;;;5065206;28;20982;-56
2023/04/01 06:50:30;;;;;;;2.77;1.17;;;13.30;1.00;;;;;;5070585;28;20454;-56
2023/04/01 06:55:46;;;;;;;2.20;1.00;;;13.20;1.00;;;;;;5064138;28;20589;-56
2023/04/01 06:58:22;;;;;;;1.50;1.00;;;13.30;1.00;;;;;;5066063;28;20456;-56
2023/04/01 07:00:52;;;;;;;2.60;0.70;;;13.30;1.00;;;;;;5066512;28;20794;-55
2023/04/01 07:03:20;;;;;;;1.90;0.60;;;13.40;1.00;;;;;;5070306;28;20982;-55
2023/04/01 07:05:46;;;;;;;2.30;0.60;;;13.30;1.00;;;;;;5064197;28;20434;-55
2023/04/01 07:08:23;;;;;;;1.60;1.10;;;13.40;1.00;;;;;;5062364;28;20471;-54
2023/04/01 07:11:04;;;;;;;0.60;0.60;;;13.40;1.00;;;;;;5060666;28;20203;-55
2023/04/01 07:13:50;;;;;;;3.10;0.83;;;13.20;1.00;;;;;;5060061;28;20442;-56
2023/04/01 07:16:59;;;;;;;1.60;0.90;;;13.10;1.00;;;;;;5061536;28;20859;-55
2023/04/01 07:19:58;;;;;;;5.23;1.27;;;13.10;1.00;;;;;;5062044;28;20782;-56
2023/04/01 07:22:35;;;;;;;1.67;0.80;;;13.10;1.00;;;;;;5047653;28;20424;-54
2023/04/01 07:25:21;;;;;;;3.30;1.17;;;13.20;1.00;;;;;;5061239;28;20932;-56
2023/04/01 07:27:47;;;;;;;3.37;0.97;;;13.20;1.00;;;;;;5062478;28;20814;-55
2023/04/01 07:30:22;;;;;;;3.73;0.97;;;13.30;1.00;;;;;;5068028;28;20450;-55
2023/04/01 07:33:06;;;;;;;1.40;0.70;;;13.40;1.00;;;;;;5067614;28;20187;-55
2023/04/01 07:35:38;;;;;;;1.60;0.80;;;13.40;1.00;;;;;;5062412;28;20514;-56
2023/04/01 07:38:41;;;;;;;4.20;1.10;;;13.40;1.00;;;;;;5064201;28;20446;-55
2023/04/01 07:41:56;;;;;;;1.60;0.53;;;13.50;1.00;;;;;;5064655;28;20914;-55
2023/04/01 07:45:01;;;;;;;2.07;1.10;;;13.40;1.00;;;;;;5059157;28;20449;-55
2023/04/01 07:47:32;;;;;;;1.67;1.00;;;13.40;1.00;;;;;;5064345;28;20587;-56
2023/04/01 07:50:04;;;;;;;3.77;0.93;;;13.50;1.00;;;;;;5064168;28;20442;-55
2023/04/01 07:52:42;;;;;;;1.43;0.93;;;13.60;1.00;;;;;;5070417;28;20437;-54
2023/04/01 07:55:38;;;;;;;1.50;0.90;;;13.50;1.00;;;;;;5064301;28;20507;-55
2023/04/01 07:58:11;;;;;;;3.33;0.63;;;13.40;1.00;;;;;;5059300;28;20541;-58
2023/04/01 08:00:48;;;;;;;1.37;0.90;;;13.50;1.00;;;;;;5061619;28;20769;-56
2023/04/01 08:03:20;;;;;;;1.27;0.70;;;13.40;1.00;;;;;;5060264;28;20441;-56
2023/04/01 08:05:58;;;;;;;3.77;0.87;;;13.60;1.00;;;;;;5054426;28;20534;-57
2023/04/01 08:09:04;;;;;;;3.23;0.70;;;13.70;1.00;;;;;;5049113;28;20454;-56
2023/04/01 08:11:46;;;;;;;3.03;1.67;;;13.70;1.00;;;;;;5027293;28;20494;-55
2023/04/01 08:14:50;;;;;;;2.90;0.90;;;13.70;1.00;;;;;;5045310;28;20890;-56
2023/04/01 08:17:24;;;;;;;1.60;0.80;;;13.60;1.00;;;;;;5025724;28;20426;-56
2023/04/01 08:20:05;;;;;;;2.50;0.90;;;13.50;1.00;;;;;;5026245;28;20451;-56
2023/04/01 08:22:40;;;;;;;1.47;0.60;;;13.70;1.00;;;;;;5046880;28;20537;-56
2023/04/01 08:25:10;;;;;;;1.57;0.90;;;13.70;1.00;;;;;;5048960;28;20446;-58
2023/04/01 08:27:41;;;;;;;1.27;0.77;;;13.80;1.00;;;;;;5048799;28;20458;-55
2023/04/01 08:30:25;;;;;;;1.40;0.60;;;13.70;1.00;;;;;;5048666;28;20465;-56
2023/04/01 08:33:07;;;;;;;1.90;0.50;;;13.60;1.00;;;;;;5045256;28;20979;-56
2023/04/01 08:36:09;;;;;;;1.70;0.87;;;13.70;1.00;;;;;;5045558;28;20525;-56
2023/04/01 08:38:50;;;;;;;0.90;0.67;;;13.60;1.00;;;;;;5040090;28;20934;-55
2023/04/01 08:41:55;;;;;;;1.90;0.90;;;13.60;1.00;;;;;;5046487;28;20779;-56
2023/04/01 08:44:52;;;;;;;1.90;0.90;;;13.90;1.00;;;;;;5050053;28;20481;-56
2023/04/01 08:48:08;;;;;;;0.80;0.57;;;14.00;1.00;;;;;;5049024;28;20936;-55
2023/04/01 08:50:52;;;;;;;1.27;0.60;;;14.00;1.00;;;;;;5037644;28;20438;-57
2023/04/01 08:53:51;;;;;;;1.40;0.80;;;13.90;1.00;;;;;;5044694;28;20899;-55
2023/04/01 08:56:36;;;;;;;2.00;0.90;;;13.80;1.00;;;;;;5051145;28;20771;-57
2023/04/01 08:59:27;;;;;;;2.30;0.67;;;13.80;1.00;;;;;;5048783;28;20481;-57
2023/04/01 09:01:55;;;;;;;1.70;0.70;;;13.80;1.00;;;;;;5046672;28;20429;-57
2023/04/01 09:04:30;;;;;;;0.77;0.60;;;14.00;1.00;;;;;;5048647;28;20443;-57
2023/04/01 09:07:09;;;;;;;1.77;0.80;;;13.90;1.00;;;;;;5045309;28;20487;-57
2023/04/01 09:09:53;;;;;;;3.73;0.80;;;13.90;1.00;;;;;;5050280;28;20958;-57
2023/04/01 09:12:25;;;;;;;2.30;0.70;;;13.90;1.00;;;;;;5054965;28;20453;-57
2023/04/01 09:15:19;;;;;;;1.97;0.97;;;14.00;1.00;;;;;;5049902;28;20466;-55
2023/04/01 09:18:04;;;;;;;2.73;0.77;;;14.20;1.00;;;;;;5032744;28;20435;-57
2023/04/01 09:20:47;;;;;;;2.50;0.90;;;14.10;1.00;;;;;;5042626;28;20442;-55
2023/04/01 09:23:31;;;;;;;0.70;0.60;;;14.00;1.00;;;;;;5045200;28;20474;-57
2023/04/01 09:26:03;;;;;;;1.50;1.00;;;14.10;1.00;;;;;;5055954;28;20435;-55
2023/04/01 09:28:42;;;;;;;1.00;0.53;;;14.10;1.00;;;;;;5052627;28;20480;-55
2023/04/01 09:31:07;;;;;;;1.70;0.83;;;14.30;1.00;;;;;;5048559;28;20780;-57
2023/04/01 09:33:56;;;;;;;2.20;0.60;;;14.40;1.00;;;;;;5058325;28;20446;-57
2023/04/01 09:36:22;;;;;;;0.97;0.63;;;14.30;1.00;;;;;;5064572;28;20187;-56
2023/04/01 09:38:58;;;;;;;2.63;1.10;;;14.40;1.00;;;;;;5062960;28;20932;-56
2023/04/01 09:41:31;;;;;;;1.83;0.90;;;14.50;1.00;;;;;;5053435;28;20527;-55
2023/04/01 09:44:20;;;;;;;1.97;0.80;;;14.60;1.00;;;;;;5044677;28;20443;-54
2023/04/01 09:47:10;;;;;;;2.00;0.73;;;14.70;1.00;;;;;;5047988;28;20482;-57
2023/04/01 09:49:48;;;;;;;0.80;0.67;;;14.30;1.00;;;;;;5048387;28;20496;-57
2023/04/01 09:52:32;;;;;;;5.07;1.30;;;14.40;1.00;;;;;;5043825;28;20979;-57
2023/04/01 09:55:50;;;;;;;2.10;0.93;;;14.60;1.00;;;;;;5045168;28;20449;-54
2023/04/01 09:58:34;;;;;;;0.93;0.40;;;14.70;1.00;;;;;;5032722;28;20447;-55
2023/04/01 10:01:24;;;;;;;1.33;0.80;;;14.50;1.00;;;;;;5042491;28;20490;-57
2023/04/01 10:04:06;;;;;;;3.93;1.20;;;14.60;1.00;;;;;;5041844;28;20499;-55
2023/04/01 10:06:51;;;;;;;1.27;0.90;;;14.70;1.00;;;;;;5055422;28;20457;-56
2023/04/01 10:10:09;;;;;;;1.00;0.90;;;14.70;1.00;;;;;;5066930;28;20445;-56
2023/04/01 10:12:51;;;;;;;2.00;0.70;;;14.80;1.00;;;;;;5028510;28;20633;-57
2023/04/01 10:15:19;;;;;;;0.93;0.73;;;14.40;1.00;;;;;;5048321;28;20466;-55
2023/04/01 10:17:57;;;;;;;1.33;0.53;;;14.70;1.00;;;;;;5048254;28;20521;-57
2023/04/01 10:20:26;;;;;;;1.10;0.40;;;14.70;1.00;;;;;;5063470;28;20446;-57
2023/04/01 10:23:22;;;;;;;1.43;0.93;;;15.00;1.00;;;;;;5069101;28;20411;-58
2023/04/01 10:25:57;;;;;;;1.80;0.77;;;15.10;1.00;;;;;;5069253;28;20441;-56
2023/04/01 10:28:34;;;;;;;1.60;1.00;;;14.90;1.00;;;;;;5068877;28;20448;-54
2023/04/01 10:31:18;;;;;;;1.00;0.70;;;14.70;1.00;;;;;;5064330;28;20440;-56
2023/04/01 10:34:05;;;;;;;3.57;0.53;;;14.70;1.00;;;;;;5048821;28;20497;-56
2023/04/01 10:36:56;;;;;;;0.80;0.73;;;14.60;1.00;;;;;;5049078;28;20533;-56
2023/04/01 10:39:45;;;;;;;3.03;0.60;;;14.50;1.00;;;;;;5049189;28;20435;-55
2023/04/01 10:42:50;;;;;;;1.40;0.70;;;14.60;1.00;;;;;;5047621;28;20443;-56
2023/04/01 10:45:57;;;;;;;1.00;0.43;;;14.50;1.00;;;;;;5048725;28;20443;-58
2023/04/01 10:48:31;;;;;;;2.90;0.97;;;14.50;1.00;;;;;;5048866;28;20752;-55
2023/04/01 10:51:22;;;;;;;2.17;0.73;;;14.50;1.00;;;;;;5060658;28;20434;-54
2023/04/01 10:54:12;;;;;;;1.63;0.60;;;14.50;1.00;;;;;;5059633;28;20474;-56
2023/04/01 10:56:38;;;;;;;2.23;1.10;;;14.60;1.00;;;;;;5064066;28;20405;-57
2023/04/01 10:59:25;;;;;;;1.17;1.03;;;14.80;1.00;;;;;;5050335;28;20785;-56
2023/04/01 11:02:24;;;;;;;2.10;0.70;;;14.90;1.00;;;;;;5068393;28;20179;-56
2023/04/01 11:04:58;;;;;;;2.83;1.17;;;15.10;1.00;;;;;;5055406;28;20433;-55
2023/04/01 11:07:56;;;;;;;3.20;0.83;;;15.10;1.00;;;;;;5048440;28;20966;-57
2023/04/01 11:10:47;;;;;;;1.80;0.73;;;15.10;1.00;;;;;;5038817;28;20418;-57
2023/04/01 11:13:27;;;;;;;1.73;0.70;;;15.30;1.00;;;;;;5048239;28;20572;-58
2023/04/01 11:16:16;;;;;;;1.47;0.80;;;15.20;1.00;;;;;;5048324;28;20924;-57
2023/04/01 11:19:20;;;;;;;0.50;0.50;;;15.10;1.00;;;;;;5060152;28;20473;-57
2023/04/01 11:22:17;;;;;;;1.83;0.93;;;15.10;1.00;;;;;;5068664;28;20936;-57
2023/04/01 11:25:21;;;;;;;1.20;0.60;;;15.20;1.00;;;;;;5060548;28;20498;-57
2023/04/01 11:28:16;;;;;;;1.90;1.00;;;15.30;1.00;;;;;;5040234;28;20439;-55
2023/04/01 11:31:04;;;;;;;2.07;0.90;;;15.50;1.00;;;;;;5057855;28;20432;-57
2023/04/01 11:34:01;;;;;;;2.10;1.00;;;15.80;1.00;;;;;;5046921;28;20421;-58
2023/04/01 11:36:41;;;;;;;1.80;0.90;;;16.10;1.00;;;;;;5054252;28;20452;-59
2023/04/01 11:39:36;;;;;;;2.23;1.23;;;15.30;1.00;;;;;;5068497;28;20906;-58
2023/04/01 11:42:18;;;;;;;1.70;1.23;;;16.20;1.00;;;;;;5056212;28;20543;-57
2023/04/01 11:45:05;;;;;;;1.10;0.77;;;16.60;1.00;;;;;;5071680;28;20436;-56
2023/04/01 11:48:00;;;;;;;1.40;0.80;;;16.50;1.00;;;;;;5072190;28;20927;-58
2023/04/01 11:50:45;;;;;;;1.10;0.60;;;16.20;1.00;;;;;;5071683;28;20412;-58
2023/04/01 11:53:26;;;;;;;1.37;0.60;;;16.00;1.00;;;;;;5066021;28;20465;-56
2023/04/01 11:56:07;;;;;;;1.53;0.70;;;15.90;1.00;;;;;;5051857;28;20458;-57
2023/04/01 11:58:39;;;;;;;1.60;0.73;;;15.90;1.00;;;;;;5051307;28;20446;-56
2023/04/01 12:01:25;;;;;;;0.73;0.57;;;15.90;1.00;;;;;;5051708;28;20439;-55
2023/04/01 12:04:18;;;;;;;0.97;0.50;;;16.10;1.00;;;;;;5049940;28;20451;-57
2023/04/01 12:07:19;;;;;;;0.60;0.50;;;16.20;1.00;;;;;;5050654;28;20447;-56
2023/04/01 12:10:12;;;;;;;1.10;0.50;;;15.90;1.00;;;;;;5051774;28;20431;-55
2023/04/01 12:13:11;;;;;;;1.13;0.93;;;15.60;1.00;;;;;;5055053;28;20476;-57
2023/04/01 12:16:10;;;;;;;3.53;0.57;;;15.80;1.00;;;;;;5071179;28;20586;-55
2023/04/01 12:18:48;;;;;;;1.00;0.60;;;15.80;1.00;;;;;;5061657;28;20443;-58
2023/04/01 12:21:19;;;;;;;2.10;0.83;;;15.80;1.00;;;;;;5063728;28;20430;-56
2023/04/01 12:24:04;;;;;;;1.03;0.60;;;15.80;1.00;;;;;;5058808;28;20571;-57
2023/04/01 12:26:50;;;;;;;1.77;0.80;;;15.90;1.00;;;;;;5051185;28;20488;-57
2023/04/01 12:29:38;;;;;;;2.30;0.73;;;16.20;1.00;;;;;;5051234;28;20462;-55
2023/04/01 12:32:40;;;;;;;1.60;1.50;;;16.30;1.00;;;;;;5055151;28;20434;-56
2023/04/01 12:35:23;;;;;;;1.40;1.00;;;16.30;1.00;;;;;;5066384;28;20467;-59
2023/04/01 12:38:22;;;;;;;3.77;1.00;;;16.30;1.00;;;;;;5050355;28;20451;-57
2023/04/01 12:40:51;;;;;;;1.30;0.90;;;16.20;1.00;;;;;;5051279;28;20826;-56
2023/04/01 12:43:22;;;;;;;5.93;2.20;;;16.40;1.00;;;;;;5050746;28;20933;-56
2023/04/01 12:45:59;;;;;;;2.03;1.20;;;16.50;1.00;;;;;;5050999;28;20431;-56
2023/04/01 12:48:27;;;;;;;2.03;1.53;;;16.50;1.00;;;;;;5050818;28;20751;-57
2023/04/01 12:51:14;;;;;;;2.90;1.00;;;16.60;1.00;;;;;;5067133;28;20457;-56
2023/04/01 12:53:54;;;;;;;1.23;1.07;;;16.70;99.90;;;;;;5050150;28;20462;-57
2023/04/01 12:56:38;;;;;;;3.60;1.17;;;16.90;99.90;;;;;;5050663;28;20438;-56
2023/04/01 12:59:24;;;;;;;1.93;1.00;;;17.10;99.90;;;;;;5045753;28;20768;-57
2023/04/01 13:01:57;;;;;;;1.00;0.90;;;17.30;99.90;;;;;;5028159;28;20445;-56
2023/04/01 13:04:34;;;;;;;1.80;0.77;;;17.20;99.90;;;;;;5048084;28;20450;-57
2023/04/01 13:07:24;;;;;;;2.30;1.17;;;17.20;99.90;;;;;;5047446;28;20921;-56
2023/04/01 13:10:06;;;;;;;2.77;1.70;;;17.20;99.90;;;;;;5045651;28;20470;-56
2023/04/01 13:12:40;;;;;;;7.20;1.83;;;17.20;99.90;;;;;;5036893;28;20425;-55
2023/04/01 13:15:21;;;;;;;1.40;0.90;;;17.10;99.90;;;;;;5049674;28;20494;-56
2023/04/01 13:17:55;;;;;;;2.27;1.00;;;17.10;99.90;;;;;;5047170;28;20498;-57
2023/04/01 13:20:49;;;;;;;1.40;1.13;;;17.10;99.90;;;;;;5049232;28;20516;-55
2023/04/01 13:23:29;;;;;;;2.10;1.03;;;16.80;99.90;;;;;;5044069;28;20453;-58
2023/04/01 13:26:08;;;;;;;3.53;1.20;;;16.70;99.90;;;;;;5038224;28;20555;-56
2023/04/01 13:28:46;;;;;;;2.03;0.60;;;16.50;99.90;;;;;;5046723;28;20413;-56
2023/04/01 13:31:38;;;;;;;0.90;0.43;;;16.30;99.90;;;;;;5051930;28;20748;-56
2023/04/01 13:34:28;;;;;;;2.20;0.50;;;15.80;99.90;;;;;;5047711;28;20564;-57
2023/04/01 13:37:16;;;;;;;0.40;0.30;;;15.40;99.90;;;;;;5044981;28;20768;-56
2023/04/01 13:39:54;;;;;;;0.70;0.40;;;14.60;99.90;;;;;;5046785;28;20438;-56
2023/04/01 13:43:05;;;;;;;2.37;2.17;;;15.50;99.90;;;;;;5050829;28;20453;-56
2023/04/01 13:46:08;;;;;;;1.23;0.60;;;15.70;99.90;;;;;;5039534;28;20451;-57
2023/04/01 13:48:49;;;;;;;0.50;0.40;;;15.80;99.90;;;;;;5047981;28;20431;-56